KFLL/FLL METAR and TAF weather

Enter ICAO airport designator
Station Type Date Time Source
KFLL METAR 2019/06/26 19:53 UTC NOAA

KFLL 261953Z 10010KT 10SM FEW050 FEW120 FEW250 33/23 A3002 RMK AO2 LTG DSNT SW AND NW SLP167 CB DSNT SW NW MOV SW T03280233


Station Type Date Time Source
KFLL Decoded METAR 2019/06/26 19:53 UTC NOAA

FORT LAUDERDALE/HOLLYWOOD, FL, United States (KFLL) 26-04N 080-09W 30M
Jun 26, 2019 - 03:53 PM EDT / 2019.06.26 1953 UTC
Wind: from the E (100 degrees) at 12 MPH (10 KT):0
Visibility: 10 mile(s):0
Sky conditions: mostly clear
Weather: Cumulonimbus clouds, lightning observed
Temperature: 91.0 F (32.8 C)
Heat index: 100.2 F (37.9 C):1
Dew Point: 73.9 F (23.3 C)
Relative Humidity: 57%
Pressure (altimeter): 30.02 in. Hg (1016 hPa)
ob: KFLL 261953Z 10010KT 10SM FEW050 FEW120 FEW250 33/23 A3002 RMK AO2 LTG DSNT SW AND NW SLP167 CB DSNT SW NW MOV SW T03280233
cycle: 20

Station Type Date Time Source
KFLL TAF 2019/06/26 18:45 UTC NOAA

TAF KFLL 261741Z 2618/2724 09010KT P6SM VCTS SCT025CB BKN050
FM270100 08005KT P6SM FEW035
FM271400 09009KT P6SM FEW250

Example: see airport list